Trigg Furnace, Kentucky
Current Conditions -  °F | °C
As of 5:58 AM on Saturday 25 Oct 2014 (Local Time) from KHOP Reporting Station
Broken Clouds Broken Clouds  
Wind Chill: 52°   Ceiling: 5500
Heat Index: 52°   Visibility: 10mi
Dew Point: 52°   Wind: 5mph
Humidity: 100%   Direction: 190°S
Pressure: 30.06"   Gusts: NA
Location:  36.8031°N, 87.8159°W
Report Text: KHOP 251058Z AUTO 19004KT 10SM FEW044 BKN055 11/11 A3006 RMK AO2 SLP180 T01090109
Loading
Personal Weather Stations






























Interactive Weather Map
Tropical Storm Tracking
New forecast layout! Learn more

10-Day Weather Forecast

Advertisements
Track Severe Weather on mobile